Time;durP1;ratioP1;P1;durP2;ratioP2;P2;SDS_P1;SDS_P2;PMS_P1;PMS_P2;Temp;Humidity;BMP_temperature;BMP_pressure;BME280_temperature;BME280_humidity;BME280_pressure;Samples;Min_cycle;Max_cycle;Signal;HPM_P1;HPM_P2
2023/06/30 00:02:17;;;;;;;4.30;1.48;;;;;22.10;101346.00;;;;5010582;28;20217;-76
2023/06/30 00:04:47;;;;;;;1.85;1.30;;;;;22.00;101348.00;;;;5009102;28;20210;-76
2023/06/30 00:07:15;;;;;;;2.15;1.17;;;;;22.00;101339.00;;;;5007604;28;20232;-76
2023/06/30 00:09:43;;;;;;;2.58;1.40;;;;;21.90;101339.00;;;;5009549;28;20201;-76
2023/06/30 00:12:10;;;;;;;5.57;1.80;;;;;21.90;101335.00;;;;5007656;28;20201;-76
2023/06/30 00:14:38;;;;;;;4.43;1.50;;;;;21.90;101338.00;;;;5009865;28;20201;-76
2023/06/30 00:17:05;;;;;;;4.82;1.50;;;;;21.80;101332.00;;;;5010074;28;20197;-76
2023/06/30 00:19:33;;;;;;;3.08;1.30;;;;;21.80;101333.00;;;;5009994;28;20208;-76
2023/06/30 00:22:02;;;;;;;5.00;1.67;;;;;21.70;101339.00;;;;5006758;28;20221;-76
2023/06/30 00:24:29;;;;;;;3.75;1.50;;;;;21.70;101334.00;;;;5008638;28;20193;-76
2023/06/30 00:26:56;;;;;;;3.70;1.65;;;;;21.70;101337.00;;;;5008678;28;20208;-76
2023/06/30 00:29:23;;;;;;;2.78;1.45;;;;;21.70;101323.00;;;;5008999;28;20200;-76
2023/06/30 00:31:51;;;;;;;2.28;1.10;;;;;21.60;101326.00;;;;5007029;28;20208;-76
2023/06/30 00:34:18;;;;;;;3.35;1.48;;;;;21.60;101321.00;;;;5006394;28;20208;-76
2023/06/30 00:36:45;;;;;;;1.85;1.20;;;;;21.60;101321.00;;;;5007550;28;20197;-76
2023/06/30 00:39:14;;;;;;;2.35;1.17;;;;;21.50;101319.00;;;;5005620;28;20193;-76
2023/06/30 00:41:41;;;;;;;1.63;1.15;;;;;21.50;101319.00;;;;5006404;28;20236;-76
2023/06/30 00:44:09;;;;;;;2.03;1.58;;;;;21.50;101322.00;;;;5008123;28;20210;-76
2023/06/30 00:46:36;;;;;;;3.72;1.33;;;;;21.40;101316.00;;;;5007381;28;20209;-76
2023/06/30 00:49:03;;;;;;;2.95;1.45;;;;;21.40;101317.00;;;;5006676;28;20205;-76
2023/06/30 00:51:31;;;;;;;4.68;1.38;;;;;21.40;101313.00;;;;5007711;28;20204;-76
2023/06/30 00:53:59;;;;;;;2.30;1.55;;;;;21.30;101321.00;;;;5006001;28;20193;-76
2023/06/30 00:56:27;;;;;;;3.28;1.63;;;;;21.30;101320.00;;;;5001531;28;20202;-76
2023/06/30 00:58:57;;;;;;;1.85;1.10;;;;;21.30;101311.00;;;;5004625;28;20287;-76
2023/06/30 01:01:32;;;;;;;2.95;1.40;;;;;21.20;101313.00;;;;5006662;28;20233;-76
2023/06/30 01:04:09;;;;;;;2.85;1.38;;;;;21.10;101311.00;;;;5006518;28;20203;-76
2023/06/30 01:06:44;;;;;;;1.63;1.17;;;;;21.10;101309.00;;;;5001023;28;20207;-76
2023/06/30 01:09:18;;;;;;;2.95;1.10;;;;;21.10;101316.00;;;;5004598;28;20234;-76
2023/06/30 01:11:47;;;;;;;2.55;1.13;;;;;21.10;101309.00;;;;5004017;28;20197;-76
2023/06/30 01:14:17;;;;;;;4.45;1.83;;;;;21.10;101311.00;;;;4995999;28;20676;-76
2023/06/30 01:16:46;;;;;;;5.25;1.92;;;;;21.00;101311.00;;;;5003003;28;20205;-76
2023/06/30 01:19:20;;;;;;;4.00;1.40;;;;;21.00;101307.00;;;;5006100;28;20197;-76
2023/06/30 01:21:50;;;;;;;2.95;1.80;;;;;21.00;101318.00;;;;5008297;28;20220;-76
2023/06/30 01:24:18;;;;;;;3.85;1.73;;;;;20.90;101316.00;;;;5006519;28;20200;-76
2023/06/30 01:26:49;;;;;;;3.63;1.77;;;;;20.90;101324.00;;;;5006635;28;20207;-76
2023/06/30 01:29:17;;;;;;;4.13;1.70;;;;;20.90;101318.00;;;;5007063;28;20995;-76
2023/06/30 01:31:46;;;;;;;1.85;1.30;;;;;20.80;101322.00;;;;4997769;28;20209;-76
2023/06/30 01:34:13;;;;;;;3.72;1.75;;;;;20.80;101320.00;;;;5007238;28;20553;-76
2023/06/30 01:36:41;;;;;;;5.03;1.73;;;;;20.80;101323.00;;;;5005456;28;20201;-76
2023/06/30 01:39:08;;;;;;;3.72;1.60;;;;;20.70;101322.00;;;;5006376;28;21042;-76
2023/06/30 01:41:36;;;;;;;5.78;1.98;;;;;20.70;101315.00;;;;5008765;28;20260;-76
2023/06/30 01:44:05;;;;;;;2.85;1.70;;;;;20.60;101321.00;;;;5008535;28;20735;-76
2023/06/30 01:46:33;;;;;;;2.15;1.25;;;;;20.60;101313.00;;;;5006963;28;20196;-76
2023/06/30 01:49:00;;;;;;;3.40;1.55;;;;;20.60;101319.00;;;;5003461;28;20196;-75
2023/06/30 01:51:27;;;;;;;3.08;1.60;;;;;20.60;101316.00;;;;5006736;28;20675;-75
2023/06/30 01:53:55;;;;;;;2.28;1.23;;;;;20.50;101315.00;;;;5008521;28;20655;-75
2023/06/30 01:56:22;;;;;;;5.18;1.65;;;;;20.50;101322.00;;;;5008536;28;20211;-75
2023/06/30 01:58:50;;;;;;;3.25;1.60;;;;;20.50;101320.00;;;;5008802;28;20200;-75
2023/06/30 02:01:18;;;;;;;2.92;1.10;;;;;20.40;101322.00;;;;5006338;28;20232;-75
2023/06/30 02:03:47;;;;;;;3.55;1.50;;;;;20.40;101314.00;;;;5002667;28;20196;-75
2023/06/30 02:06:14;;;;;;;2.92;1.27;;;;;20.40;101310.00;;;;5000834;28;20710;-74
2023/06/30 02:08:42;;;;;;;2.55;1.33;;;;;20.30;101306.00;;;;5007130;28;20236;-75
2023/06/30 02:11:09;;;;;;;5.00;1.63;;;;;20.30;101311.00;;;;5006816;28;20227;-75
2023/06/30 02:13:36;;;;;;;2.55;1.38;;;;;20.30;101313.00;;;;5005760;28;20205;-75
2023/06/30 02:16:04;;;;;;;3.25;1.52;;;;;20.20;101308.00;;;;5006511;28;20205;-75
2023/06/30 02:18:32;;;;;;;3.58;1.73;;;;;20.20;101301.00;;;;5007461;28;20299;-75
2023/06/30 02:21:00;;;;;;;3.65;1.58;;;;;20.20;101298.00;;;;5003737;28;20225;-74
2023/06/30 02:23:29;;;;;;;2.55;1.27;;;;;20.10;101304.00;;;;5003980;28;20288;-75
2023/06/30 02:25:57;;;;;;;2.30;1.75;;;;;20.10;101308.00;;;;4993589;28;20750;-75
2023/06/30 02:28:24;;;;;;;3.22;1.52;;;;;20.10;101295.00;;;;5002202;28;20422;-74
2023/06/30 02:30:53;;;;;;;1.20;1.00;;;;;20.10;101300.00;;;;5007223;28;20212;-74
2023/06/30 02:33:21;;;;;;;4.13;1.10;;;;;20.00;101306.00;;;;5007554;28;20189;-75
2023/06/30 02:35:50;;;;;;;2.70;1.30;;;;;20.00;101306.00;;;;5006390;28;20228;-75
2023/06/30 02:38:18;;;;;;;2.55;1.52;;;;;20.00;101303.00;;;;4998240;28;20205;-75
2023/06/30 02:40:45;;;;;;;3.05;1.35;;;;;19.90;101303.00;;;;5001596;28;20205;-75
2023/06/30 02:43:13;;;;;;;4.00;1.20;;;;;19.90;101301.00;;;;5007445;28;20729;-75
2023/06/30 02:45:40;;;;;;;4.32;2.00;;;;;19.90;101297.00;;;;5006830;28;20200;-74
2023/06/30 02:48:07;;;;;;;4.80;1.77;;;;;19.80;101306.00;;;;5006800;28;20193;-74
2023/06/30 02:50:34;;;;;;;2.72;1.20;;;;;19.80;101302.00;;;;5005839;28;20201;-75
2023/06/30 02:53:03;;;;;;;4.55;1.23;;;;;19.70;101301.00;;;;5000019;28;20205;-75
2023/06/30 02:55:32;;;;;;;2.00;1.10;;;;;19.80;101299.00;;;;5000454;28;20201;-75
2023/06/30 02:57:59;;;;;;;3.67;1.60;;;;;19.70;101298.00;;;;5004153;28;20197;-75
2023/06/30 03:00:27;;;;;;;2.22;1.08;;;;;19.70;101293.00;;;;5003535;28;20204;-75
2023/06/30 03:02:54;;;;;;;1.85;1.30;;;;;19.70;101312.00;;;;5007294;28;20232;-75
2023/06/30 03:05:21;;;;;;;2.35;1.33;;;;;19.60;101295.00;;;;5005632;28;20205;-74
2023/06/30 03:07:49;;;;;;;2.15;1.17;;;;;19.60;101296.00;;;;5006360;28;20244;-75
2023/06/30 03:10:17;;;;;;;1.40;1.30;;;;;19.60;101294.00;;;;5007614;28;20209;-75
2023/06/30 03:12:45;;;;;;;2.30;1.30;;;;;19.60;101298.00;;;;5006558;28;20216;-75
2023/06/30 03:15:12;;;;;;;3.85;1.20;;;;;19.50;101299.00;;;;5007157;28;20193;-75
2023/06/30 03:17:40;;;;;;;2.78;1.20;;;;;19.50;101299.00;;;;5005518;28;20287;-75
2023/06/30 03:20:11;;;;;;;3.45;1.17;;;;;19.50;101300.00;;;;5003387;28;20786;-75
2023/06/30 03:22:38;;;;;;;2.17;1.13;;;;;19.50;101300.00;;;;5006440;28;20227;-75
2023/06/30 03:25:08;;;;;;;2.75;1.60;;;;;19.40;101302.00;;;;5005388;28;20205;-74
2023/06/30 03:27:38;;;;;;;1.90;1.10;;;;;19.40;101291.00;;;;5007468;28;20200;-75
2023/06/30 03:30:06;;;;;;;2.42;1.55;;;;;19.40;101299.00;;;;5000949;28;20200;-74
2023/06/30 03:32:34;;;;;;;4.55;1.35;;;;;19.40;101303.00;;;;5007990;28;20200;-74
2023/06/30 03:35:02;;;;;;;3.13;1.40;;;;;19.40;101306.00;;;;5002507;28;20204;-74
2023/06/30 03:37:30;;;;;;;2.08;1.00;;;;;19.30;101301.00;;;;5007316;28;20196;-75
2023/06/30 03:39:58;;;;;;;1.90;1.38;;;;;19.30;101306.00;;;;5007296;28;20201;-74
2023/06/30 03:42:25;;;;;;;3.75;1.83;;;;;19.30;101309.00;;;;5007038;28;20221;-74
2023/06/30 03:44:55;;;;;;;3.03;1.42;;;;;19.30;101306.00;;;;5002416;28;20288;-74
2023/06/30 03:47:22;;;;;;;3.65;1.20;;;;;19.30;101308.00;;;;4996169;28;20205;-75
2023/06/30 03:49:49;;;;;;;1.65;1.20;;;;;19.20;101308.00;;;;5007468;28;20201;-75
2023/06/30 03:52:16;;;;;;;1.63;1.08;;;;;19.20;101305.00;;;;5008118;28;20205;-75
2023/06/30 03:54:44;;;;;;;2.78;1.27;;;;;19.20;101301.00;;;;5006916;28;20201;-75
2023/06/30 03:57:11;;;;;;;3.03;1.33;;;;;19.20;101305.00;;;;5006289;28;20200;-75
2023/06/30 03:59:38;;;;;;;3.83;1.27;;;;;19.20;101311.00;;;;5009624;28;20197;-74
2023/06/30 04:02:07;;;;;;;2.63;1.25;;;;;19.10;101312.00;;;;5011191;28;20235;-75
2023/06/30 04:04:34;;;;;;;3.70;1.23;;;;;19.10;101311.00;;;;4996016;28;20594;-75
2023/06/30 04:07:02;;;;;;;2.30;1.42;;;;;19.10;101309.00;;;;5009339;28;20192;-75
2023/06/30 04:09:29;;;;;;;2.45;1.27;;;;;19.10;101306.00;;;;5008066;28;20212;-75
2023/06/30 04:11:56;;;;;;;3.42;1.98;;;;;19.10;101308.00;;;;5006752;28;20205;-75
2023/06/30 04:14:24;;;;;;;3.53;1.20;;;;;19.10;101304.00;;;;5011010;28;20201;-75
2023/06/30 04:16:51;;;;;;;2.38;1.20;;;;;19.10;101305.00;;;;5008515;28;20205;-75
2023/06/30 04:19:20;;;;;;;2.60;1.17;;;;;19.10;101306.00;;;;5006970;28;20681;-75
2023/06/30 04:21:49;;;;;;;1.48;1.17;;;;;19.10;101300.00;;;;5007905;28;20256;-75
2023/06/30 04:24:16;;;;;;;2.53;1.80;;;;;19.20;101302.00;;;;5010483;28;20792;-75
2023/06/30 04:26:44;;;;;;;1.13;1.00;;;;;19.20;101294.00;;;;5010944;28;20212;-75
2023/06/30 04:29:12;;;;;;;8.23;1.70;;;;;19.20;101293.00;;;;5008988;28;20208;-75
2023/06/30 04:31:39;;;;;;;3.80;1.50;;;;;19.20;101298.00;;;;5006484;28;20201;-75
2023/06/30 04:34:06;;;;;;;2.20;1.42;;;;;19.20;101301.00;;;;5010762;28;20197;-75
2023/06/30 04:36:35;;;;;;;2.30;1.40;;;;;19.20;101300.00;;;;5009536;28;20211;-75
2023/06/30 04:39:03;;;;;;;1.58;1.23;;;;;19.30;101293.00;;;;5008732;28;20193;-75
2023/06/30 04:41:30;;;;;;;2.38;1.27;;;;;19.30;101297.00;;;;5009967;28;20201;-75
2023/06/30 04:43:59;;;;;;;2.42;1.42;;;;;19.30;101291.00;;;;5009666;28;20196;-75
2023/06/30 04:46:26;;;;;;;4.63;1.50;;;;;19.30;101290.00;;;;5007061;28;20574;-75
2023/06/30 04:48:55;;;;;;;3.55;2.10;;;;;19.40;101301.00;;;;5001649;28;20205;-75
2023/06/30 04:51:23;;;;;;;1.33;1.05;;;;;19.40;101301.00;;;;5008473;28;20200;-76
2023/06/30 04:53:51;;;;;;;2.80;1.42;;;;;19.40;101299.00;;;;5004740;28;20208;-76
2023/06/30 04:56:19;;;;;;;2.78;1.48;;;;;19.50;101304.00;;;;5008154;28;20227;-75
2023/06/30 04:58:46;;;;;;;1.83;1.38;;;;;19.50;101297.00;;;;5006673;28;20288;-75
2023/06/30 05:01:14;;;;;;;2.90;1.60;;;;;19.60;101298.00;;;;5003249;28;20197;-75
2023/06/30 05:03:41;;;;;;;2.55;1.60;;;;;19.60;101291.00;;;;5002828;28;20235;-76
2023/06/30 05:06:10;;;;;;;2.05;1.30;;;;;19.70;101298.00;;;;5008672;28;20396;-75
2023/06/30 05:08:37;;;;;;;5.43;1.55;;;;;19.70;101292.00;;;;5010041;28;20232;-75
2023/06/30 05:11:05;;;;;;;2.45;1.42;;;;;19.80;101303.00;;;;5003288;28;20201;-76
2023/06/30 05:13:33;;;;;;;5.07;1.83;;;;;19.80;101290.00;;;;5009729;28;20208;-75
2023/06/30 05:16:00;;;;;;;2.47;1.90;;;;;19.90;101302.00;;;;5005953;28;20197;-76
2023/06/30 05:18:27;;;;;;;2.65;1.65;;;;;20.00;101298.00;;;;5006885;28;20188;-76
2023/06/30 05:20:55;;;;;;;2.15;1.20;;;;;20.10;101304.00;;;;5006370;28;20197;-75
2023/06/30 05:23:23;;;;;;;4.82;1.92;;;;;20.10;101306.00;;;;5007559;28;20228;-76
2023/06/30 05:25:50;;;;;;;2.83;1.55;;;;;20.20;101300.00;;;;5002016;28;20198;-76
2023/06/30 05:28:19;;;;;;;4.78;2.13;;;;;20.30;101303.00;;;;5006466;28;20205;-76
2023/06/30 05:30:46;;;;;;;4.30;1.45;;;;;20.40;101308.00;;;;5009872;28;20205;-76
2023/06/30 05:33:14;;;;;;;4.13;1.80;;;;;20.40;101307.00;;;;5002492;28;20190;-76
2023/06/30 05:35:41;;;;;;;6.00;1.48;;;;;20.50;101314.00;;;;5007034;28;20213;-76
2023/06/30 05:38:08;;;;;;;3.70;1.75;;;;;20.60;101311.00;;;;5008260;28;20197;-75
2023/06/30 05:40:35;;;;;;;1.63;1.27;;;;;20.60;101311.00;;;;5009592;28;20200;-75
2023/06/30 05:43:03;;;;;;;1.63;1.40;;;;;20.70;101316.00;;;;5009437;28;20273;-75
2023/06/30 05:45:31;;;;;;;2.28;1.30;;;;;20.80;101317.00;;;;5005897;28;20189;-75
2023/06/30 05:47:59;;;;;;;5.53;1.92;;;;;20.90;101312.00;;;;5008670;28;20204;-76
2023/06/30 05:50:27;;;;;;;3.85;1.58;;;;;20.90;101309.00;;;;5008241;28;20209;-76
2023/06/30 05:52:54;;;;;;;5.03;2.25;;;;;21.00;101306.00;;;;5008269;28;20204;-75
2023/06/30 05:55:22;;;;;;;3.13;1.58;;;;;21.10;101302.00;;;;5008283;28;20199;-76
2023/06/30 05:57:49;;;;;;;3.72;2.00;;;;;21.20;101312.00;;;;5008280;28;20215;-76
2023/06/30 06:00:18;;;;;;;11.48;2.13;;;;;21.20;101309.00;;;;5008597;28;20197;-76
2023/06/30 06:02:46;;;;;;;3.80;1.80;;;;;21.30;101307.00;;;;5003760;28;20217;-76
2023/06/30 06:05:14;;;;;;;5.15;1.55;;;;;21.40;101308.00;;;;5006971;28;20193;-77
2023/06/30 06:07:41;;;;;;;2.83;1.48;;;;;21.50;101312.00;;;;5007553;28;20240;-76
2023/06/30 06:10:09;;;;;;;2.88;1.70;;;;;21.50;101313.00;;;;5007679;28;20215;-76
2023/06/30 06:12:38;;;;;;;3.63;1.70;;;;;21.60;101311.00;;;;5001414;28;20225;-76
2023/06/30 06:15:07;;;;;;;3.20;1.67;;;;;21.70;101312.00;;;;4994504;28;20197;-76
2023/06/30 06:17:34;;;;;;;2.25;1.30;;;;;21.80;101312.00;;;;5008607;28;20504;-76
2023/06/30 06:20:03;;;;;;;5.45;1.88;;;;;21.80;101304.00;;;;5006396;28;20196;-76
2023/06/30 06:22:31;;;;;;;3.00;1.65;;;;;22.00;101317.00;;;;5008275;28;20694;-76
2023/06/30 06:24:59;;;;;;;5.20;1.25;;;;;22.00;101313.00;;;;4989891;28;20194;-76
2023/06/30 06:27:28;;;;;;;5.07;1.65;;;;;22.10;101314.00;;;;4989582;28;20225;-76
2023/06/30 06:29:55;;;;;;;2.45;1.20;;;;;22.20;101319.00;;;;4989674;28;20524;-76
2023/06/30 06:32:23;;;;;;;4.10;1.48;;;;;22.30;101314.00;;;;4990063;28;20201;-76
2023/06/30 06:34:50;;;;;;;2.65;1.35;;;;;22.40;101309.00;;;;5006193;28;20205;-76
2023/06/30 06:37:18;;;;;;;1.10;1.00;;;;;22.50;101316.00;;;;4998259;28;20201;-76
2023/06/30 06:39:46;;;;;;;3.17;1.27;;;;;22.60;101316.00;;;;5009102;28;20197;-76
2023/06/30 06:42:13;;;;;;;1.80;1.20;;;;;22.70;101311.00;;;;5008353;28;20201;-76
2023/06/30 06:44:40;;;;;;;3.63;1.17;;;;;22.70;101313.00;;;;5008472;28;20208;-77
2023/06/30 06:47:45;;;;;;;4.22;1.35;;;;;22.70;101310.00;;;;5008573;28;20199;-77
2023/06/30 06:50:12;;;;;;;2.33;0.85;;;;;22.90;101311.00;;;;5007945;28;20196;-76
2023/06/30 06:52:41;;;;;;;4.60;1.40;;;;;23.00;101310.00;;;;5007450;28;20209;-76
2023/06/30 06:55:09;;;;;;;3.85;1.13;;;;;23.10;101317.00;;;;4987819;28;20217;-77
2023/06/30 06:57:36;;;;;;;3.90;1.02;;;;;23.20;101314.00;;;;4988059;28;20583;-76
2023/06/30 07:00:04;;;;;;;1.10;0.93;;;;;23.30;101318.00;;;;4989068;28;20538;-76
2023/06/30 07:02:31;;;;;;;2.78;1.17;;;;;23.30;101308.00;;;;4994824;28;20227;-76
2023/06/30 07:04:58;;;;;;;6.18;1.00;;;;;23.40;101315.00;;;;5008372;28;20299;-76
2023/06/30 07:07:26;;;;;;;2.65;1.17;;;;;23.50;101319.00;;;;4998250;28;20235;-76
2023/06/30 07:09:54;;;;;;;2.33;1.15;;;;;23.50;101314.00;;;;5006228;28;20204;-77
2023/06/30 07:12:22;;;;;;;2.35;0.70;;;;;23.60;101314.00;;;;4988964;28;20209;-77
2023/06/30 07:14:49;;;;;;;2.25;0.73;;;;;23.70;101313.00;;;;4988627;28;20206;-78
2023/06/30 07:17:16;;;;;;;1.25;0.75;;;;;23.80;101315.00;;;;5000698;28;20200;-78
2023/06/30 07:19:43;;;;;;;2.55;0.82;;;;;23.90;101317.00;;;;5008369;28;20205;-77
2023/06/30 07:22:11;;;;;;;2.58;0.90;;;;;23.90;101310.00;;;;5007774;28;20928;-77
2023/06/30 07:24:38;;;;;;;2.35;1.13;;;;;24.00;101312.00;;;;5007862;28;20236;-77
2023/06/30 07:27:07;;;;;;;3.45;0.93;;;;;24.00;101312.00;;;;5004316;28;20197;-77
2023/06/30 07:29:35;;;;;;;1.65;0.80;;;;;24.10;101314.00;;;;4993353;28;20208;-77
2023/06/30 07:32:02;;;;;;;1.40;0.73;;;;;24.20;101309.00;;;;5006160;28;20201;-77
2023/06/30 07:34:33;;;;;;;1.65;1.08;;;;;24.30;101309.00;;;;5009642;28;20208;-78
2023/06/30 07:37:01;;;;;;;1.05;0.60;;;;;24.30;101310.00;;;;5010112;28;20251;-77
2023/06/30 07:39:28;;;;;;;2.42;0.68;;;;;24.40;101310.00;;;;5011826;28;20205;-77
2023/06/30 07:41:55;;;;;;;2.50;0.93;;;;;24.40;101309.00;;;;5011576;28;20197;-78
2023/06/30 07:44:24;;;;;;;1.00;0.70;;;;;24.50;101319.00;;;;5005076;28;20605;-78
2023/06/30 07:46:51;;;;;;;1.55;0.90;;;;;24.60;101309.00;;;;4991787;28;20202;-78
2023/06/30 07:49:18;;;;;;;2.90;1.08;;;;;24.70;101309.00;;;;4992105;28;20200;-78
2023/06/30 07:51:47;;;;;;;1.70;0.95;;;;;24.70;101312.00;;;;4992196;28;20205;-78
2023/06/30 07:54:14;;;;;;;2.55;1.00;;;;;24.80;101305.00;;;;5001675;28;20213;-77
2023/06/30 07:56:42;;;;;;;2.33;0.93;;;;;24.90;101308.00;;;;5010908;28;20193;-78
2023/06/30 07:59:09;;;;;;;2.28;0.90;;;;;25.00;101306.00;;;;5010961;28;20201;-78
2023/06/30 08:01:38;;;;;;;1.20;0.60;;;;;25.00;101312.00;;;;5004299;28;20217;-77
2023/06/30 08:04:05;;;;;;;1.92;0.95;;;;;25.10;101313.00;;;;5008167;28;20231;-78
2023/06/30 08:06:32;;;;;;;2.72;0.98;;;;;25.20;101306.00;;;;5009875;28;20205;-78
2023/06/30 08:09:00;;;;;;;1.38;1.15;;;;;25.30;101310.00;;;;5010109;28;20239;-78
2023/06/30 08:11:27;;;;;;;1.88;0.82;;;;;25.40;101309.00;;;;5011182;28;20208;-78
2023/06/30 08:13:55;;;;;;;1.05;0.90;;;;;25.50;101306.00;;;;5011470;28;20284;-79
2023/06/30 08:16:23;;;;;;;3.28;1.40;;;;;25.50;101305.00;;;;5011578;28;20552;-78
2023/06/30 08:18:51;;;;;;;2.33;0.88;;;;;25.60;101306.00;;;;5006578;28;20200;-78
2023/06/30 08:21:19;;;;;;;4.00;1.30;;;;;25.70;101305.00;;;;5007381;28;20197;-78
2023/06/30 08:23:46;;;;;;;2.60;0.88;;;;;25.70;101310.00;;;;5009824;28;20231;-78
2023/06/30 08:26:13;;;;;;;3.50;1.00;;;;;25.80;101308.00;;;;5011566;28;20207;-78
2023/06/30 08:28:41;;;;;;;1.02;0.57;;;;;25.80;101308.00;;;;5010648;28;20197;-78
2023/06/30 08:31:08;;;;;;;1.52;0.75;;;;;25.90;101305.00;;;;5010351;28;20287;-78
2023/06/30 08:33:35;;;;;;;2.90;0.90;;;;;26.00;101311.00;;;;5010319;28;20208;-77
2023/06/30 08:36:05;;;;;;;1.15;0.73;;;;;26.00;101297.00;;;;5002850;28;20197;-77
2023/06/30 08:38:32;;;;;;;1.25;0.70;;;;;26.10;101297.00;;;;5010120;28;20208;-77
2023/06/30 08:41:00;;;;;;;1.55;0.77;;;;;26.10;101306.00;;;;5010715;28;20193;-78
2023/06/30 08:43:30;;;;;;;1.55;0.75;;;;;26.20;101304.00;;;;5001683;28;20714;-78
2023/06/30 08:45:59;;;;;;;1.65;0.80;;;;;26.30;101299.00;;;;5007774;28;20663;-79
2023/06/30 08:48:30;;;;;;;2.55;0.82;;;;;26.30;101303.00;;;;5011379;28;20193;-78
2023/06/30 08:50:57;;;;;;;1.95;1.10;;;;;26.40;101291.00;;;;5008210;28;20201;-77
2023/06/30 08:53:28;;;;;;;1.33;0.75;;;;;26.40;101298.00;;;;5010029;28;20205;-77
2023/06/30 08:55:57;;;;;;;3.72;1.10;;;;;26.50;101293.00;;;;5010707;28;20189;-77
2023/06/30 08:58:26;;;;;;;5.13;1.02;;;;;26.60;101288.00;;;;5010892;28;20205;-77
2023/06/30 09:00:54;;;;;;;1.83;0.80;;;;;26.70;101286.00;;;;5005788;28;20674;-78
2023/06/30 09:03:21;;;;;;;2.30;1.02;;;;;26.80;101289.00;;;;5011215;28;20216;-78
2023/06/30 09:05:50;;;;;;;1.33;0.80;;;;;26.90;101285.00;;;;5009992;28;20219;-77
2023/06/30 09:08:23;;;;;;;2.88;0.65;;;;;26.90;101284.00;;;;5009844;28;20231;-78
2023/06/30 09:10:52;;;;;;;0.85;0.70;;;;;27.00;101278.00;;;;5008109;28;20304;-78
2023/06/30 09:13:22;;;;;;;2.58;0.82;;;;;27.10;101281.00;;;;5010464;28;20201;-77
2023/06/30 09:15:50;;;;;;;2.40;0.98;;;;;27.10;101283.00;;;;5010286;28;20572;-78
2023/06/30 09:18:17;;;;;;;1.40;0.80;;;;;27.20;101288.00;;;;5010712;28;20201;-77
2023/06/30 09:20:45;;;;;;;2.03;0.80;;;;;27.20;101276.00;;;;5010077;28;20205;-77
2023/06/30 09:23:12;;;;;;;0.98;0.70;;;;;27.30;101275.00;;;;5009641;28;20220;-78
2023/06/30 09:25:41;;;;;;;1.30;0.70;;;;;27.30;101276.00;;;;5009774;28;20239;-78
2023/06/30 09:28:14;;;;;;;2.85;0.88;;;;;27.30;101273.00;;;;4990485;28;20220;-78
2023/06/30 09:30:45;;;;;;;1.15;0.88;;;;;27.40;101273.00;;;;4996777;28;20682;-77
2023/06/30 09:33:15;;;;;;;2.80;1.00;;;;;27.40;101264.00;;;;5010346;28;20204;-78
2023/06/30 09:35:44;;;;;;;1.52;0.88;;;;;27.40;101268.00;;;;5009933;28;20205;-78
2023/06/30 09:38:13;;;;;;;1.58;0.95;;;;;27.50;101267.00;;;;5009604;28;20208;-78
2023/06/30 09:40:44;;;;;;;1.73;1.05;;;;;27.60;101266.00;;;;5009810;28;20204;-78
2023/06/30 09:43:18;;;;;;;2.13;0.70;;;;;27.50;101269.00;;;;5006881;28;20217;-78
2023/06/30 09:45:47;;;;;;;1.38;1.08;;;;;27.60;101268.00;;;;5007988;28;20225;-78
2023/06/30 09:48:14;;;;;;;1.10;0.70;;;;;27.70;101269.00;;;;5009830;28;20626;-78
2023/06/30 09:50:43;;;;;;;2.55;1.15;;;;;27.70;101279.00;;;;5009304;28;20197;-78
2023/06/30 09:53:10;;;;;;;1.75;1.00;;;;;27.60;101272.00;;;;5009463;28;20215;-78
2023/06/30 09:55:48;;;;;;;1.00;0.80;;;;;27.60;101265.00;;;;5009597;28;20288;-78
2023/06/30 09:58:18;;;;;;;1.00;0.77;;;;;27.70;101269.00;;;;5009870;28;20203;-77
2023/06/30 10:00:46;;;;;;;1.80;0.95;;;;;27.70;101280.00;;;;5000855;28;20227;-78
2023/06/30 10:03:16;;;;;;;1.30;0.90;;;;;27.60;101269.00;;;;5009086;28;20662;-78
2023/06/30 10:05:47;;;;;;;1.77;1.30;;;;;27.60;101266.00;;;;5008968;28;20557;-77
2023/06/30 10:08:15;;;;;;;1.88;1.40;;;;;27.50;101266.00;;;;5009747;28;20233;-77
2023/06/30 10:10:43;;;;;;;1.80;1.10;;;;;27.50;101269.00;;;;5008860;28;20296;-78
2023/06/30 10:13:13;;;;;;;2.15;1.02;;;;;27.50;101263.00;;;;5008872;28;20665;-77
2023/06/30 10:15:42;;;;;;;0.73;0.70;;;;;27.40;101260.00;;;;5008796;28;20200;-77
2023/06/30 10:18:11;;;;;;;2.75;1.13;;;;;27.40;101253.00;;;;4996451;28;20212;-77
2023/06/30 10:20:38;;;;;;;2.42;1.00;;;;;27.40;101254.00;;;;4994964;28;20205;-78
2023/06/30 10:23:06;;;;;;;5.05;1.20;;;;;27.40;101259.00;;;;5007469;28;20200;-78
2023/06/30 10:25:37;;;;;;;2.05;1.20;;;;;27.30;101256.00;;;;5006467;28;20208;-78
2023/06/30 10:28:06;;;;;;;1.63;0.75;;;;;27.30;101259.00;;;;5004461;28;20288;-78
2023/06/30 10:30:34;;;;;;;2.78;0.90;;;;;27.30;101257.00;;;;5004234;28;20196;-78
2023/06/30 10:33:03;;;;;;;2.22;1.10;;;;;27.30;101256.00;;;;5008748;28;20713;-78
2023/06/30 10:35:31;;;;;;;2.40;1.10;;;;;27.40;101252.00;;;;5000167;28;20201;-78
2023/06/30 10:37:59;;;;;;;12.20;1.50;;;;;27.50;101251.00;;;;5008378;28;20200;-78
2023/06/30 10:40:27;;;;;;;1.55;0.93;;;;;27.50;101253.00;;;;5003623;28;20197;-79
2023/06/30 10:42:57;;;;;;;1.88;1.25;;;;;27.50;101248.00;;;;5005113;28;20205;-78
2023/06/30 10:45:30;;;;;;;3.72;1.17;;;;;27.60;101245.00;;;;5009371;28;20251;-79
2023/06/30 10:48:07;;;;;;;3.75;1.23;;;;;27.60;101248.00;;;;5004264;28;20801;-78
2023/06/30 10:50:42;;;;;;;1.40;1.10;;;;;27.60;101235.00;;;;5002981;28;20201;-78
2023/06/30 10:53:17;;;;;;;1.67;0.93;;;;;27.70;101240.00;;;;5004802;28;20212;-78
2023/06/30 10:55:45;;;;;;;2.25;1.42;;;;;27.80;101232.00;;;;5008415;28;20199;-79
2023/06/30 10:58:21;;;;;;;2.30;1.13;;;;;27.80;101234.00;;;;5009243;28;20263;-78
2023/06/30 11:01:04;;;;;;;2.63;1.00;;;;;27.80;101241.00;;;;5008300;28;20698;-79
2023/06/30 11:04:12;;;;;;;1.85;0.98;;;;;27.80;101228.00;;;;5008457;28;20236;-80
2023/06/30 11:06:46;;;;;;;11.02;1.23;;;;;28.00;101221.00;;;;5004161;28;20251;-78
2023/06/30 11:09:13;;;;;;;3.08;1.30;;;;;28.10;101229.00;;;;5001803;28;20614;-78
2023/06/30 11:11:50;;;;;;;3.05;1.27;;;;;28.10;101227.00;;;;5008762;28;20210;-78
2023/06/30 11:14:31;;;;;;;4.45;1.50;;;;;28.10;101227.00;;;;5008806;28;20192;-78
2023/06/30 11:17:04;;;;;;;1.67;1.23;;;;;28.20;101226.00;;;;5008143;28;20193;-78
2023/06/30 11:19:31;;;;;;;2.15;1.27;;;;;28.30;101223.00;;;;5006984;28;20674;-78
2023/06/30 11:22:25;;;;;;;2.00;1.00;;;;;28.20;101219.00;;;;5008127;28;20204;-78
2023/06/30 11:24:52;;;;;;;2.08;1.15;;;;;28.30;101214.00;;;;5001581;28;20247;-78
2023/06/30 11:27:20;;;;;;;1.88;1.10;;;;;28.30;101211.00;;;;5007827;28;20205;-78
2023/06/30 11:29:50;;;;;;;1.95;1.35;;;;;28.40;101213.00;;;;5008365;28;20243;-78
2023/06/30 11:32:18;;;;;;;1.73;1.20;;;;;28.40;101207.00;;;;5008373;28;20205;-78
2023/06/30 11:34:45;;;;;;;4.88;1.55;;;;;28.40;101208.00;;;;5007778;28;20205;-78
2023/06/30 11:37:13;;;;;;;1.67;1.10;;;;;28.50;101198.00;;;;5008531;28;20201;-79
2023/06/30 11:39:41;;;;;;;2.50;0.90;;;;;28.50;101205.00;;;;5004926;28;20201;-79
2023/06/30 11:42:09;;;;;;;1.25;1.00;;;;;28.60;101202.00;;;;5003019;28;20236;-78
2023/06/30 11:44:37;;;;;;;2.95;1.13;;;;;28.70;101200.00;;;;5010703;28;20248;-78
2023/06/30 11:47:05;;;;;;;1.55;1.23;;;;;28.70;101192.00;;;;5009177;28;20267;-78
2023/06/30 11:49:36;;;;;;;1.98;1.30;;;;;28.70;101181.00;;;;5006165;28;20223;-77
2023/06/30 11:52:05;;;;;;;2.10;1.20;;;;;28.70;101182.00;;;;5001579;28;20272;-78
2023/06/30 11:54:34;;;;;;;1.33;1.20;;;;;28.70;101177.00;;;;5000245;28;20205;-78
2023/06/30 11:57:05;;;;;;;1.67;0.93;;;;;28.80;101184.00;;;;5000464;28;20212;-78
2023/06/30 11:59:32;;;;;;;1.05;0.95;;;;;28.80;101185.00;;;;4996055;28;20198;-78
2023/06/30 12:02:01;;;;;;;2.15;1.10;;;;;28.80;101193.00;;;;4997187;28;20208;-79
2023/06/30 12:04:35;;;;;;;1.00;0.82;;;;;28.70;101185.00;;;;5000562;28;20229;-79
2023/06/30 12:07:05;;;;;;;4.35;1.25;;;;;28.80;101180.00;;;;4999351;28;20192;-80
2023/06/30 12:09:32;;;;;;;1.23;1.10;;;;;28.80;101176.00;;;;4998200;28;20742;-80
2023/06/30 12:12:00;;;;;;;3.20;1.92;;;;;28.90;101179.00;;;;4999013;28;20204;-80
2023/06/30 12:14:29;;;;;;;2.20;1.42;;;;;28.90;101176.00;;;;5008479;28;20255;-78
2023/06/30 12:16:57;;;;;;;2.05;1.35;;;;;28.90;101174.00;;;;5004552;28;20193;-78